Accueil
METAR-TAF:

METAR-TAF

Aéroports :

Deering, Alaska, États-Unis

latitude: 66-05N, longitude: 162-45W, altitude: 5 m

Observation

Le bulletin a été fait il y a 1 heure et 6 minutes, à 04:53 UTC
Vent 20 kt de est/nord-est
Température -8°C
Humidité 100%
Pression 986 hPa
Visibilité: 16.1 km
Ciel clair

METAR: PADE 080453Z AUTO 07020KT 10SM CLR M08/M08 A2913 RMK AO2 PK WND 07028/0442 SLP864 T10781083 TSNO $

Heure: 20:59 (05:59 UTC)


TAF: absent

Observations et prévisions météorologiques de plus de 4000 aéroports (messages METAR et TAF).

Les stations disponibles sont représentées par des disques jaunes et rouges sur la carte.

Passer la souris dessus pour voir le nom de la station.

Cliquer dessus pour voir les observations et prévisions météorologiques.

Pour changer de carte: cliquez sur les boutons verts avec une croix noire pour zoomer, sur le bouton vert avec un tiret pour effectuer un zoom arrière, ou sur les flèches vertes pour les cartes adjacentes.


METAR-TAF: